Standale, Michigan
Current Conditions -  °F | °C
As of 10:16 AM on Wednesday 22 Oct 2014 (Local Time) from KGRR Reporting Station
Broken Clouds Broken Clouds  
Wind Chill: 39°   Ceiling: 2000
Heat Index: 39°   Visibility: 10mi
Dew Point: 35°   Wind: 3mph
Humidity: 86%   Direction: 40°NE
Pressure: 30.38"   Gusts: NA
Location:  42.9769°N, 85.7689°W
Report Text: KGRR 221416Z 04003KT 10SM BKN020 04/02 A3038 RMK AO2 T00390017
Loading
Personal Weather Stations






























Interactive Weather Map New forecast layout! Learn more

10-Day Weather Forecast

Advertisements
Track Severe Weather on mobile